UTAT

Details ICAO UTAT (TAZ)
Name DASHOGUZ
Region Tajikistan, Turkmenistan and Uzbekistan
Timezone Asia/Ashgabat (UTC+5.0)
Plans Departing 0
Arriving 5
Stats Elevation 272 ft / 83 m (AMSL)
Location 41.760700° 59.837900°
Runways 2
Magnetic Variation 6.382° E
Sunrise 2018-09-20 01:46:51 UTC / 2018-09-20 06:46:51 Local
Sunset 2018-09-20 14:04:18 UTC / 2018-09-20 19:04:18 Local
Advertisement - Login to hide

Runways

ID Width Length Bearing (true/mag) Surface Threshold Overrun Markings Lighting
09L 138 ft / 42 m 8,845 ft / 2,696 m 90.01° / 83.63° ASPHALT 0 ft / 0 m 0 ft / 0 m APP EDGE THRESHOLD MALS
09R 98 ft / 30 m 4,893 ft / 1,491 m 89.99° / 83.61° ASPHALT 0 ft / 0 m 0 ft / 0 m APP
27L 98 ft / 30 m 4,893 ft / 1,491 m 270.01° / 263.62° ASPHALT 0 ft / 0 m 0 ft / 0 m APP
27R 138 ft / 42 m 8,845 ft / 2,696 m 270.03° / 263.65° ASPHALT 0 ft / 0 m 0 ft / 0 m APP EDGE THRESHOLD MALS

Map

Weather


0- 5 10 15 20 25 30 35+ Temperature / °C

Clouds and Precipitation
Forecast for 2018-09-20 00:00 UTC. Updated an hour ago

Ground ~20,000 ft ~40,000 ft Winds

METAR

UTAT 192200Z 24008KT CAVOK 15/05 Q1014 NOSIG

TAF

Not found

Frequencies

Approach 124.70 MHz
Approach 131.70 MHz TRANSIT
Warning: Do not use this data for real-world aviation or navigation. No guarantee of current accuracy is given.